sensor_id;sensor_type;location;lat;lon;timestamp;pressure;altitude;pressure_sealevel;temperature;humidity
37904;BME280;23738;50.422;18.758;2023-07-09T00:02:28;98947.35;;;14.86;60.60
37904;BME280;23738;50.422;18.758;2023-07-09T00:04:57;98949.20;;;14.81;60.73
37904;BME280;23738;50.422;18.758;2023-07-09T00:07:29;98949.65;;;14.75;60.71
37904;BME280;23738;50.422;18.758;2023-07-09T00:09:59;98948.33;;;14.71;60.80
37904;BME280;23738;50.422;18.758;2023-07-09T00:12:29;98951.52;;;14.66;60.80
37904;BME280;23738;50.422;18.758;2023-07-09T00:14:58;98946.66;;;14.63;60.77
37904;BME280;23738;50.422;18.758;2023-07-09T00:17:31;98949.02;;;14.61;60.96
37904;BME280;23738;50.422;18.758;2023-07-09T00:20:02;98942.66;;;14.60;61.05
37904;BME280;23738;50.422;18.758;2023-07-09T00:22:33;98941.84;;;14.58;61.00
37904;BME280;23738;50.422;18.758;2023-07-09T00:25:02;98939.96;;;14.56;61.19
37904;BME280;23738;50.422;18.758;2023-07-09T00:27:32;98940.79;;;14.53;61.16
37904;BME280;23738;50.422;18.758;2023-07-09T00:30:01;98936.94;;;14.51;61.28
37904;BME280;23738;50.422;18.758;2023-07-09T00:32:31;98940.02;;;14.47;61.35
37904;BME280;23738;50.422;18.758;2023-07-09T00:35:01;98940.55;;;14.43;61.41
37904;BME280;23738;50.422;18.758;2023-07-09T00:37:32;98940.67;;;14.39;61.41
37904;BME280;23738;50.422;18.758;2023-07-09T00:40:02;98939.59;;;14.35;61.46
37904;BME280;23738;50.422;18.758;2023-07-09T00:42:33;98938.83;;;14.30;61.39
37904;BME280;23738;50.422;18.758;2023-07-09T00:45:07;98937.55;;;14.26;61.41
37904;BME280;23738;50.422;18.758;2023-07-09T00:47:49;98934.29;;;14.24;61.42
37904;BME280;23738;50.422;18.758;2023-07-09T00:50:31;98937.88;;;14.23;61.55
37904;BME280;23738;50.422;18.758;2023-07-09T00:53:04;98932.81;;;14.22;61.62
37904;BME280;23738;50.422;18.758;2023-07-09T00:55:40;98929.61;;;14.20;61.69
37904;BME280;23738;50.422;18.758;2023-07-09T00:58:14;98935.60;;;14.17;61.83
37904;BME280;23738;50.422;18.758;2023-07-09T01:00:46;98932.65;;;14.14;61.80
37904;BME280;23738;50.422;18.758;2023-07-09T01:03:23;98930.20;;;14.11;61.92
37904;BME280;23738;50.422;18.758;2023-07-09T01:05:58;98926.15;;;14.07;61.97
37904;BME280;23738;50.422;18.758;2023-07-09T01:08:30;98923.65;;;14.03;62.08
37904;BME280;23738;50.422;18.758;2023-07-09T01:11:00;98925.17;;;14.00;62.04
37904;BME280;23738;50.422;18.758;2023-07-09T01:13:31;98923.86;;;13.97;62.12
37904;BME280;23738;50.422;18.758;2023-07-09T01:16:03;98920.92;;;13.97;62.15
37904;BME280;23738;50.422;18.758;2023-07-09T01:18:33;98923.84;;;13.96;62.35
37904;BME280;23738;50.422;18.758;2023-07-09T01:21:09;98925.70;;;13.95;62.35
37904;BME280;23738;50.422;18.758;2023-07-09T01:23:44;98921.48;;;13.92;62.37
37904;BME280;23738;50.422;18.758;2023-07-09T01:26:17;98920.20;;;13.88;62.44
37904;BME280;23738;50.422;18.758;2023-07-09T01:28:47;98917.48;;;13.85;62.43
37904;BME280;23738;50.422;18.758;2023-07-09T01:31:17;98920.84;;;13.83;62.54
37904;BME280;23738;50.422;18.758;2023-07-09T01:33:48;98918.98;;;13.78;62.52
37904;BME280;23738;50.422;18.758;2023-07-09T01:36:20;98924.79;;;13.74;62.55
37904;BME280;23738;50.422;18.758;2023-07-09T01:38:52;98926.61;;;13.70;62.51
37904;BME280;23738;50.422;18.758;2023-07-09T01:41:22;98930.98;;;13.69;62.60
37904;BME280;23738;50.422;18.758;2023-07-09T01:43:52;98935.55;;;13.68;62.86
37904;BME280;23738;50.422;18.758;2023-07-09T01:46:22;98937.59;;;13.67;62.89
37904;BME280;23738;50.422;18.758;2023-07-09T01:48:51;98941.84;;;13.66;62.92
37904;BME280;23738;50.422;18.758;2023-07-09T01:51:20;98940.61;;;13.63;62.97
37904;BME280;23738;50.422;18.758;2023-07-09T01:53:52;98937.86;;;13.60;62.97
37904;BME280;23738;50.422;18.758;2023-07-09T01:56:22;98940.69;;;13.58;62.97
37904;BME280;23738;50.422;18.758;2023-07-09T01:58:52;98940.59;;;13.53;63.03
37904;BME280;23738;50.422;18.758;2023-07-09T02:01:29;98940.88;;;13.50;63.07
37904;BME280;23738;50.422;18.758;2023-07-09T02:04:01;98938.55;;;13.45;63.06
37904;BME280;23738;50.422;18.758;2023-07-09T02:06:31;98941.17;;;13.43;63.07
37904;BME280;23738;50.422;18.758;2023-07-09T02:09:01;98941.41;;;13.42;63.03
37904;BME280;23738;50.422;18.758;2023-07-09T02:11:30;98941.90;;;13.42;63.12
37904;BME280;23738;50.422;18.758;2023-07-09T02:13:59;98946.02;;;13.43;63.26
37904;BME280;23738;50.422;18.758;2023-07-09T02:16:28;98943.80;;;13.40;63.25
37904;BME280;23738;50.422;18.758;2023-07-09T02:18:58;98946.67;;;13.38;63.26
37904;BME280;23738;50.422;18.758;2023-07-09T02:21:27;98947.52;;;13.35;63.34
37904;BME280;23738;50.422;18.758;2023-07-09T02:23:57;98949.36;;;13.33;63.40
37904;BME280;23738;50.422;18.758;2023-07-09T02:26:27;98947.98;;;13.30;63.50
37904;BME280;23738;50.422;18.758;2023-07-09T02:28:56;98950.05;;;13.27;63.41
37904;BME280;23738;50.422;18.758;2023-07-09T02:31:25;98954.04;;;13.24;63.43
37904;BME280;23738;50.422;18.758;2023-07-09T02:33:57;98953.55;;;13.23;63.53
37904;BME280;23738;50.422;18.758;2023-07-09T02:36:27;98952.57;;;13.24;63.52
37904;BME280;23738;50.422;18.758;2023-07-09T02:38:56;98956.03;;;13.23;63.54
37904;BME280;23738;50.422;18.758;2023-07-09T02:41:25;98955.27;;;13.22;63.68
37904;BME280;23738;50.422;18.758;2023-07-09T02:43:55;98958.80;;;13.20;63.70
37904;BME280;23738;50.422;18.758;2023-07-09T02:46:24;98957.34;;;13.18;63.68
37904;BME280;23738;50.422;18.758;2023-07-09T02:48:53;98956.90;;;13.15;63.83
37904;BME280;23738;50.422;18.758;2023-07-09T02:51:23;98956.39;;;13.13;63.83
37904;BME280;23738;50.422;18.758;2023-07-09T02:53:55;98954.95;;;13.09;63.85
37904;BME280;23738;50.422;18.758;2023-07-09T02:56:25;98959.89;;;13.06;63.85
37904;BME280;23738;50.422;18.758;2023-07-09T02:58:55;98956.30;;;13.07;63.83
37904;BME280;23738;50.422;18.758;2023-07-09T03:01:25;98961.33;;;13.09;63.95
37904;BME280;23738;50.422;18.758;2023-07-09T03:03:55;98960.98;;;13.10;64.05
37904;BME280;23738;50.422;18.758;2023-07-09T03:06:27;98959.23;;;13.12;64.16
37904;BME280;23738;50.422;18.758;2023-07-09T03:08:56;98956.13;;;13.12;64.17
37904;BME280;23738;50.422;18.758;2023-07-09T03:11:25;98959.79;;;13.11;64.23
37904;BME280;23738;50.422;18.758;2023-07-09T03:13:55;98963.19;;;13.09;64.21
37904;BME280;23738;50.422;18.758;2023-07-09T03:16:25;98964.86;;;13.07;64.28
37904;BME280;23738;50.422;18.758;2023-07-09T03:18:55;98964.45;;;13.05;64.41
37904;BME280;23738;50.422;18.758;2023-07-09T03:21:25;98966.00;;;13.03;64.21
37904;BME280;23738;50.422;18.758;2023-07-09T03:23:55;98966.24;;;13.05;64.27
37904;BME280;23738;50.422;18.758;2023-07-09T03:26:25;98965.27;;;13.08;64.47
37904;BME280;23738;50.422;18.758;2023-07-09T03:28:56;98966.24;;;13.10;64.48
37904;BME280;23738;50.422;18.758;2023-07-09T03:31:25;98962.86;;;13.09;64.55
37904;BME280;23738;50.422;18.758;2023-07-09T03:33:55;98968.12;;;13.12;64.63
37904;BME280;23738;50.422;18.758;2023-07-09T03:36:24;98967.80;;;13.12;64.60
37904;BME280;23738;50.422;18.758;2023-07-09T03:38:53;98968.41;;;13.13;64.73
37904;BME280;23738;50.422;18.758;2023-07-09T03:41:23;98973.06;;;13.12;64.80
37904;BME280;23738;50.422;18.758;2023-07-09T03:43:52;98977.63;;;13.12;64.80
37904;BME280;23738;50.422;18.758;2023-07-09T03:46:22;98976.55;;;13.13;64.71
37904;BME280;23738;50.422;18.758;2023-07-09T03:48:51;98975.02;;;13.16;64.97
37904;BME280;23738;50.422;18.758;2023-07-09T03:51:20;98972.20;;;13.23;65.45
37904;BME280;23738;50.422;18.758;2023-07-09T03:53:49;98977.48;;;13.33;65.58
37904;BME280;23738;50.422;18.758;2023-07-09T03:56:19;98976.61;;;13.38;65.87
37904;BME280;23738;50.422;18.758;2023-07-09T03:58:48;98972.33;;;13.47;66.18
37904;BME280;23738;50.422;18.758;2023-07-09T04:01:17;98970.79;;;13.54;66.26
37904;BME280;23738;50.422;18.758;2023-07-09T04:03:47;98969.59;;;13.62;66.28
37904;BME280;23738;50.422;18.758;2023-07-09T04:06:16;98968.54;;;13.72;66.39
37904;BME280;23738;50.422;18.758;2023-07-09T04:08:45;98968.94;;;13.87;66.69
37904;BME280;23738;50.422;18.758;2023-07-09T04:11:15;98970.37;;;14.01;66.88
37904;BME280;23738;50.422;18.758;2023-07-09T04:13:44;98969.23;;;14.09;66.93
37904;BME280;23738;50.422;18.758;2023-07-09T04:16:13;98970.58;;;14.17;67.22
37904;BME280;23738;50.422;18.758;2023-07-09T04:18:43;98969.02;;;14.27;67.46
37904;BME280;23738;50.422;18.758;2023-07-09T04:21:12;98974.32;;;14.38;67.53
37904;BME280;23738;50.422;18.758;2023-07-09T04:23:41;98973.89;;;14.48;67.63
37904;BME280;23738;50.422;18.758;2023-07-09T04:26:13;98976.30;;;14.60;67.94
37904;BME280;23738;50.422;18.758;2023-07-09T04:28:43;98973.98;;;14.73;68.24
37904;BME280;23738;50.422;18.758;2023-07-09T04:31:13;98967.09;;;14.85;68.67
37904;BME280;23738;50.422;18.758;2023-07-09T04:33:42;98974.90;;;15.01;68.73
37904;BME280;23738;50.422;18.758;2023-07-09T04:36:13;98972.91;;;15.14;68.90
37904;BME280;23738;50.422;18.758;2023-07-09T04:38:42;98973.58;;;15.31;69.18
37904;BME280;23738;50.422;18.758;2023-07-09T04:41:12;98978.68;;;15.51;69.41
37904;BME280;23738;50.422;18.758;2023-07-09T04:43:41;98976.84;;;15.73;69.55
37904;BME280;23738;50.422;18.758;2023-07-09T04:46:11;98980.75;;;15.92;69.75
37904;BME280;23738;50.422;18.758;2023-07-09T04:48:40;98981.64;;;16.08;69.61
37904;BME280;23738;50.422;18.758;2023-07-09T04:51:10;98979.98;;;16.25;69.70
37904;BME280;23738;50.422;18.758;2023-07-09T04:53:39;98977.63;;;16.48;70.03
37904;BME280;23738;50.422;18.758;2023-07-09T04:56:09;98980.19;;;16.74;70.16
37904;BME280;23738;50.422;18.758;2023-07-09T04:58:39;98978.33;;;16.99;70.24
37904;BME280;23738;50.422;18.758;2023-07-09T05:01:09;98981.09;;;17.19;70.18
37904;BME280;23738;50.422;18.758;2023-07-09T05:03:39;98985.39;;;17.41;70.23
37904;BME280;23738;50.422;18.758;2023-07-09T05:06:08;98987.37;;;17.64;70.03
37904;BME280;23738;50.422;18.758;2023-07-09T05:08:37;98990.40;;;17.90;70.04
37904;BME280;23738;50.422;18.758;2023-07-09T05:11:07;98993.39;;;18.13;69.95
37904;BME280;23738;50.422;18.758;2023-07-09T05:13:36;98996.13;;;18.35;69.85
37904;BME280;23738;50.422;18.758;2023-07-09T05:16:06;98995.42;;;18.59;69.61
37904;BME280;23738;50.422;18.758;2023-07-09T05:18:36;98993.73;;;18.81;69.21
37904;BME280;23738;50.422;18.758;2023-07-09T05:21:05;99000.18;;;19.01;68.97
37904;BME280;23738;50.422;18.758;2023-07-09T05:23:35;98998.44;;;19.19;68.64
37904;BME280;23738;50.422;18.758;2023-07-09T05:26:04;98997.83;;;19.34;68.22
37904;BME280;23738;50.422;18.758;2023-07-09T05:28:33;98998.30;;;19.46;67.66
37904;BME280;23738;50.422;18.758;2023-07-09T05:31:03;98998.80;;;19.58;67.38
37904;BME280;23738;50.422;18.758;2023-07-09T05:33:33;98995.23;;;19.74;67.18
37904;BME280;23738;50.422;18.758;2023-07-09T05:36:02;98995.07;;;19.95;66.96
37904;BME280;23738;50.422;18.758;2023-07-09T05:38:31;99000.70;;;20.16;66.58
37904;BME280;23738;50.422;18.758;2023-07-09T05:41:02;98996.12;;;20.37;66.13
37904;BME280;23738;50.422;18.758;2023-07-09T05:43:32;99004.55;;;20.56;65.62
37904;BME280;23738;50.422;18.758;2023-07-09T05:46:04;99003.80;;;20.70;65.30
37904;BME280;23738;50.422;18.758;2023-07-09T05:48:34;99005.82;;;20.85;64.84
37904;BME280;23738;50.422;18.758;2023-07-09T05:51:03;99003.77;;;21.01;64.45
37904;BME280;23738;50.422;18.758;2023-07-09T05:53:33;99005.11;;;21.19;64.29
37904;BME280;23738;50.422;18.758;2023-07-09T05:56:02;99008.66;;;21.39;64.05
37904;BME280;23738;50.422;18.758;2023-07-09T05:58:31;99001.95;;;21.56;63.61
37904;BME280;23738;50.422;18.758;2023-07-09T06:01:01;99004.20;;;21.74;63.32
37904;BME280;23738;50.422;18.758;2023-07-09T06:03:30;99004.11;;;21.94;63.31
37904;BME280;23738;50.422;18.758;2023-07-09T06:06:01;99004.98;;;22.16;63.21
37904;BME280;23738;50.422;18.758;2023-07-09T06:08:30;99001.40;;;22.37;63.01
37904;BME280;23738;50.422;18.758;2023-07-09T06:11:01;99005.81;;;22.59;63.00
37904;BME280;23738;50.422;18.758;2023-07-09T06:13:32;99005.03;;;22.81;62.61
37904;BME280;23738;50.422;18.758;2023-07-09T06:16:01;99003.16;;;23.00;62.29
37904;BME280;23738;50.422;18.758;2023-07-09T06:18:31;99004.41;;;23.18;61.87
37904;BME280;23738;50.422;18.758;2023-07-09T06:21:02;99002.52;;;23.35;61.71
37904;BME280;23738;50.422;18.758;2023-07-09T06:23:32;99002.59;;;23.51;61.21
37904;BME280;23738;50.422;18.758;2023-07-09T06:26:01;99003.90;;;23.69;61.20
37904;BME280;23738;50.422;18.758;2023-07-09T06:28:32;99006.48;;;23.91;61.01
37904;BME280;23738;50.422;18.758;2023-07-09T06:31:01;99005.61;;;24.10;60.64
37904;BME280;23738;50.422;18.758;2023-07-09T06:33:31;99005.05;;;24.22;60.10
37904;BME280;23738;50.422;18.758;2023-07-09T06:36:02;99006.13;;;24.37;59.92
37904;BME280;23738;50.422;18.758;2023-07-09T06:38:32;99004.02;;;24.56;59.78
37904;BME280;23738;50.422;18.758;2023-07-09T06:41:01;99002.55;;;24.76;59.53
37904;BME280;23738;50.422;18.758;2023-07-09T06:43:31;99001.44;;;24.91;58.96
37904;BME280;23738;50.422;18.758;2023-07-09T06:46:02;98999.38;;;25.07;58.70
37904;BME280;23738;50.422;18.758;2023-07-09T06:48:32;99001.37;;;25.29;58.67
37904;BME280;23738;50.422;18.758;2023-07-09T06:51:02;99003.16;;;25.52;58.35
37904;BME280;23738;50.422;18.758;2023-07-09T06:53:31;99002.04;;;25.68;57.79
37904;BME280;23738;50.422;18.758;2023-07-09T06:56:01;99003.07;;;25.83;57.35
37904;BME280;23738;50.422;18.758;2023-07-09T06:58:32;99007.06;;;25.94;57.27
37904;BME280;23738;50.422;18.758;2023-07-09T07:01:03;99005.73;;;26.12;56.99
37904;BME280;23738;50.422;18.758;2023-07-09T07:03:34;99004.90;;;26.26;56.46
37904;BME280;23738;50.422;18.758;2023-07-09T07:06:03;99004.74;;;26.43;56.10
37904;BME280;23738;50.422;18.758;2023-07-09T07:08:34;99004.14;;;26.60;55.86
37904;BME280;23738;50.422;18.758;2023-07-09T07:11:04;99005.16;;;26.75;55.54
37904;BME280;23738;50.422;18.758;2023-07-09T07:13:36;99006.77;;;26.96;55.22
37904;BME280;23738;50.422;18.758;2023-07-09T07:16:08;99006.56;;;27.17;55.17
37904;BME280;23738;50.422;18.758;2023-07-09T07:18:38;99005.40;;;27.37;55.05
37904;BME280;23738;50.422;18.758;2023-07-09T07:21:07;99000.77;;;27.55;54.27
37904;BME280;23738;50.422;18.758;2023-07-09T07:23:37;98998.05;;;27.67;54.10
37904;BME280;23738;50.422;18.758;2023-07-09T07:26:06;98996.54;;;27.84;53.71
37904;BME280;23738;50.422;18.758;2023-07-09T07:28:37;98994.79;;;28.07;53.68
37904;BME280;23738;50.422;18.758;2023-07-09T07:31:07;98995.34;;;28.29;53.07
37904;BME280;23738;50.422;18.758;2023-07-09T07:33:39;98992.81;;;28.45;52.75
37904;BME280;23738;50.422;18.758;2023-07-09T07:36:09;98986.89;;;28.62;52.33
37904;BME280;23738;50.422;18.758;2023-07-09T07:38:39;98989.46;;;28.77;51.36
37904;BME280;23738;50.422;18.758;2023-07-09T07:41:08;98989.81;;;28.85;51.23
37904;BME280;23738;50.422;18.758;2023-07-09T07:43:38;98991.41;;;29.02;50.53
37904;BME280;23738;50.422;18.758;2023-07-09T07:46:08;98991.30;;;29.19;50.78
37904;BME280;23738;50.422;18.758;2023-07-09T07:48:38;98983.21;;;29.32;49.76
37904;BME280;23738;50.422;18.758;2023-07-09T07:51:07;98989.19;;;29.40;49.29
37904;BME280;23738;50.422;18.758;2023-07-09T07:53:39;98984.95;;;29.50;48.90
37904;BME280;23738;50.422;18.758;2023-07-09T07:56:09;98986.84;;;29.66;49.11
37904;BME280;23738;50.422;18.758;2023-07-09T07:58:38;98987.02;;;29.92;48.79
37904;BME280;23738;50.422;18.758;2023-07-09T08:01:08;98985.64;;;30.14;48.30
37904;BME280;23738;50.422;18.758;2023-07-09T08:03:37;98986.55;;;30.32;47.70
37904;BME280;23738;50.422;18.758;2023-07-09T08:06:07;98989.77;;;30.50;47.44
37904;BME280;23738;50.422;18.758;2023-07-09T08:08:36;98988.25;;;30.63;46.74
37904;BME280;23738;50.422;18.758;2023-07-09T08:11:07;98985.98;;;30.78;46.39
37904;BME280;23738;50.422;18.758;2023-07-09T08:13:38;98981.69;;;30.94;46.15
37904;BME280;23738;50.422;18.758;2023-07-09T08:16:08;98980.48;;;31.06;45.97
37904;BME280;23738;50.422;18.758;2023-07-09T08:18:39;98982.78;;;31.23;45.89
37904;BME280;23738;50.422;18.758;2023-07-09T08:21:09;98978.73;;;31.40;44.39
37904;BME280;23738;50.422;18.758;2023-07-09T08:23:39;98979.65;;;31.52;44.92
37904;BME280;23738;50.422;18.758;2023-07-09T08:26:08;98981.52;;;31.67;44.98
37904;BME280;23738;50.422;18.758;2023-07-09T08:28:38;98980.05;;;31.82;44.14
37904;BME280;23738;50.422;18.758;2023-07-09T08:31:08;98980.16;;;31.90;44.31
37904;BME280;23738;50.422;18.758;2023-07-09T08:33:37;98979.81;;;32.05;43.65
37904;BME280;23738;50.422;18.758;2023-07-09T08:36:08;98977.09;;;32.02;42.43
37904;BME280;23738;50.422;18.758;2023-07-09T08:38:37;98978.97;;;32.00;42.15
37904;BME280;23738;50.422;18.758;2023-07-09T08:41:17;98976.98;;;32.03;41.81
37904;BME280;23738;50.422;18.758;2023-07-09T08:43:58;98974.09;;;32.06;41.81
37904;BME280;23738;50.422;18.758;2023-07-09T08:46:40;98973.81;;;32.13;41.69
37904;BME280;23738;50.422;18.758;2023-07-09T08:49:16;98971.83;;;32.20;41.28
37904;BME280;23738;50.422;18.758;2023-07-09T08:51:48;98976.39;;;32.24;41.14
37904;BME280;23738;50.422;18.758;2023-07-09T08:54:22;98978.35;;;32.28;41.35
37904;BME280;23738;50.422;18.758;2023-07-09T08:56:54;98973.02;;;32.46;41.37
37904;BME280;23738;50.422;18.758;2023-07-09T08:59:25;98974.29;;;32.61;40.65
37904;BME280;23738;50.422;18.758;2023-07-09T09:01:58;98978.79;;;32.60;39.34
37904;BME280;23738;50.422;18.758;2023-07-09T09:04:31;98975.95;;;32.62;38.93
37904;BME280;23738;50.422;18.758;2023-07-09T09:07:05;98973.41;;;32.65;38.60
37904;BME280;23738;50.422;18.758;2023-07-09T09:09:40;98973.64;;;32.71;38.95
37904;BME280;23738;50.422;18.758;2023-07-09T09:12:19;98975.44;;;32.77;37.52
37904;BME280;23738;50.422;18.758;2023-07-09T09:14:55;98974.67;;;32.73;38.05
37904;BME280;23738;50.422;18.758;2023-07-09T09:17:26;98972.07;;;32.77;37.98
37904;BME280;23738;50.422;18.758;2023-07-09T09:19:59;98968.43;;;32.76;37.40
37904;BME280;23738;50.422;18.758;2023-07-09T09:22:33;98972.28;;;32.76;36.24
37904;BME280;23738;50.422;18.758;2023-07-09T09:25:18;98969.70;;;32.74;36.73
37904;BME280;23738;50.422;18.758;2023-07-09T09:27:49;98969.89;;;32.75;36.16
37904;BME280;23738;50.422;18.758;2023-07-09T09:30:20;98970.45;;;32.79;35.93
37904;BME280;23738;50.422;18.758;2023-07-09T09:32:55;98970.59;;;32.83;36.01
37904;BME280;23738;50.422;18.758;2023-07-09T09:35:29;98971.10;;;32.99;35.43
37904;BME280;23738;50.422;18.758;2023-07-09T09:38:00;98970.79;;;33.06;34.55
37904;BME280;23738;50.422;18.758;2023-07-09T09:40:33;98972.47;;;32.98;34.45
37904;BME280;23738;50.422;18.758;2023-07-09T09:43:07;98976.37;;;32.98;34.38
37904;BME280;23738;50.422;18.758;2023-07-09T09:45:44;98977.52;;;33.10;34.56
37904;BME280;23738;50.422;18.758;2023-07-09T09:48:20;98974.02;;;33.15;34.48
37904;BME280;23738;50.422;18.758;2023-07-09T09:50:57;98973.31;;;33.25;34.01
37904;BME280;23738;50.422;18.758;2023-07-09T09:53:34;98969.52;;;33.40;33.96
37904;BME280;23738;50.422;18.758;2023-07-09T09:56:11;98968.33;;;33.58;32.99
37904;BME280;23738;50.422;18.758;2023-07-09T09:58:43;98965.73;;;33.58;33.52
37904;BME280;23738;50.422;18.758;2023-07-09T10:01:18;98969.48;;;33.51;33.35
37904;BME280;23738;50.422;18.758;2023-07-09T10:03:51;98962.91;;;33.67;33.99
37904;BME280;23738;50.422;18.758;2023-07-09T10:06:37;98967.37;;;33.91;34.08
37904;BME280;23738;50.422;18.758;2023-07-09T10:09:15;98965.48;;;33.95;34.05
37904;BME280;23738;50.422;18.758;2023-07-09T10:11:52;98966.92;;;34.08;33.52
37904;BME280;23738;50.422;18.758;2023-07-09T10:14:33;98972.41;;;33.96;32.37
37904;BME280;23738;50.422;18.758;2023-07-09T10:17:10;98967.98;;;33.80;33.77
37904;BME280;23738;50.422;18.758;2023-07-09T10:19:49;98966.72;;;33.73;33.80
37904;BME280;23738;50.422;18.758;2023-07-09T10:22:35;98965.77;;;33.71;33.97
37904;BME280;23738;50.422;18.758;2023-07-09T10:25:16;98964.05;;;33.72;33.54
37904;BME280;23738;50.422;18.758;2023-07-09T10:28:03;98966.38;;;33.51;32.47
37904;BME280;23738;50.422;18.758;2023-07-09T10:30:44;98971.67;;;33.44;33.07
37904;BME280;23738;50.422;18.758;2023-07-09T10:33:25;98968.05;;;33.25;33.39
37904;BME280;23738;50.422;18.758;2023-07-09T10:36:01;98965.17;;;33.08;33.84
37904;BME280;23738;50.422;18.758;2023-07-09T10:38:40;98959.87;;;33.11;33.62
37904;BME280;23738;50.422;18.758;2023-07-09T10:41:14;98957.58;;;33.23;34.14
37904;BME280;23738;50.422;18.758;2023-07-09T10:43:49;98955.85;;;33.45;34.30
37904;BME280;23738;50.422;18.758;2023-07-09T10:46:24;98951.39;;;33.73;34.28
37904;BME280;23738;50.422;18.758;2023-07-09T10:48:55;98951.83;;;33.65;33.36
37904;BME280;23738;50.422;18.758;2023-07-09T10:51:28;98951.66;;;33.61;32.48
37904;BME280;23738;50.422;18.758;2023-07-09T10:54:02;98949.52;;;33.43;32.86
37904;BME280;23738;50.422;18.758;2023-07-09T10:56:36;98950.64;;;33.54;33.32
37904;BME280;23738;50.422;18.758;2023-07-09T10:59:14;98948.99;;;33.61;32.33
37904;BME280;23738;50.422;18.758;2023-07-09T11:01:57;98949.66;;;33.52;31.60
37904;BME280;23738;50.422;18.758;2023-07-09T11:04:31;98949.08;;;33.28;32.24
37904;BME280;23738;50.422;18.758;2023-07-09T11:07:06;98945.02;;;33.40;32.44
37904;BME280;23738;50.422;18.758;2023-07-09T11:09:43;98942.14;;;33.52;31.50
37904;BME280;23738;50.422;18.758;2023-07-09T11:12:27;98948.20;;;33.58;30.85
37904;BME280;23738;50.422;18.758;2023-07-09T11:15:03;98944.64;;;33.64;31.30
37904;BME280;23738;50.422;18.758;2023-07-09T11:17:35;98940.42;;;33.70;31.32
37904;BME280;23738;50.422;18.758;2023-07-09T11:20:27;98937.90;;;33.91;31.48
37904;BME280;23738;50.422;18.758;2023-07-09T11:23:05;98938.34;;;34.08;31.11
37904;BME280;23738;50.422;18.758;2023-07-09T11:25:45;98936.79;;;34.19;31.26
37904;BME280;23738;50.422;18.758;2023-07-09T11:28:15;98933.02;;;34.33;30.82
37904;BME280;23738;50.422;18.758;2023-07-09T11:30:50;98929.96;;;34.46;31.10
37904;BME280;23738;50.422;18.758;2023-07-09T11:33:26;98933.48;;;34.38;29.93
37904;BME280;23738;50.422;18.758;2023-07-09T11:36:09;98934.19;;;34.00;30.99
37904;BME280;23738;50.422;18.758;2023-07-09T11:38:43;98937.35;;;33.75;31.49
37904;BME280;23738;50.422;18.758;2023-07-09T11:41:40;98936.42;;;33.77;31.45
37904;BME280;23738;50.422;18.758;2023-07-09T11:44:17;98931.08;;;33.65;31.35
37904;BME280;23738;50.422;18.758;2023-07-09T11:46:55;98937.15;;;33.76;32.08
37904;BME280;23738;50.422;18.758;2023-07-09T11:49:32;98927.60;;;33.90;31.02
37904;BME280;23738;50.422;18.758;2023-07-09T11:52:06;98925.46;;;33.97;30.11
37904;BME280;23738;50.422;18.758;2023-07-09T11:54:38;98928.06;;;33.95;30.64
37904;BME280;23738;50.422;18.758;2023-07-09T11:57:12;98919.73;;;34.01;30.76
37904;BME280;23738;50.422;18.758;2023-07-09T11:59:43;98920.96;;;34.18;30.64
37904;BME280;23738;50.422;18.758;2023-07-09T12:02:18;98917.80;;;34.28;29.98
37904;BME280;23738;50.422;18.758;2023-07-09T12:04:51;98916.56;;;34.24;28.88
37904;BME280;23738;50.422;18.758;2023-07-09T12:07:23;98913.63;;;34.17;28.78
37904;BME280;23738;50.422;18.758;2023-07-09T12:09:54;98912.51;;;34.06;29.19
37904;BME280;23738;50.422;18.758;2023-07-09T12:12:25;98909.69;;;34.11;29.45
37904;BME280;23738;50.422;18.758;2023-07-09T12:14:56;98907.91;;;34.17;28.76
37904;BME280;23738;50.422;18.758;2023-07-09T12:17:27;98909.20;;;34.15;28.76
37904;BME280;23738;50.422;18.758;2023-07-09T12:19:58;98904.84;;;34.16;29.36
37904;BME280;23738;50.422;18.758;2023-07-09T12:22:28;98901.27;;;34.38;29.56
37904;BME280;23738;50.422;18.758;2023-07-09T12:24:57;98893.79;;;34.56;29.77
37904;BME280;23738;50.422;18.758;2023-07-09T12:27:30;98891.77;;;34.62;29.56
37904;BME280;23738;50.422;18.758;2023-07-09T12:30:13;98891.87;;;34.40;29.42
37904;BME280;23738;50.422;18.758;2023-07-09T12:32:46;98893.82;;;34.35;29.07
37904;BME280;23738;50.422;18.758;2023-07-09T12:35:18;98890.85;;;34.30;29.35
37904;BME280;23738;50.422;18.758;2023-07-09T12:37:50;98889.50;;;34.29;30.22
37904;BME280;23738;50.422;18.758;2023-07-09T12:40:23;98887.90;;;34.39;29.67
37904;BME280;23738;50.422;18.758;2023-07-09T12:42:57;98888.38;;;34.44;30.11
37904;BME280;23738;50.422;18.758;2023-07-09T12:45:37;98884.63;;;34.56;30.36
37904;BME280;23738;50.422;18.758;2023-07-09T12:48:08;98874.36;;;34.72;30.34
37904;BME280;23738;50.422;18.758;2023-07-09T12:50:41;98876.25;;;34.89;30.09
37904;BME280;23738;50.422;18.758;2023-07-09T12:53:15;98872.13;;;34.96;29.37
37904;BME280;23738;50.422;18.758;2023-07-09T12:55:47;98877.05;;;34.97;29.63
37904;BME280;23738;50.422;18.758;2023-07-09T12:58:20;98880.34;;;35.02;29.86
37904;BME280;23738;50.422;18.758;2023-07-09T13:00:52;98875.77;;;34.92;27.19
37904;BME280;23738;50.422;18.758;2023-07-09T13:03:26;98874.87;;;34.60;27.08
37904;BME280;23738;50.422;18.758;2023-07-09T13:05:57;98878.64;;;34.44;28.09
37904;BME280;23738;50.422;18.758;2023-07-09T13:08:28;98872.13;;;34.46;28.87
37904;BME280;23738;50.422;18.758;2023-07-09T13:10:59;98872.33;;;34.59;29.41
37904;BME280;23738;50.422;18.758;2023-07-09T13:13:28;98867.11;;;34.69;28.99
37904;BME280;23738;50.422;18.758;2023-07-09T13:15:59;98870.41;;;34.66;28.11